Flight Track Log - Related Links

Times and Time Zones

All times are in EDT time to prevent confusion due to time zone crossing. See the N569TA flight status page for this flight to view local times or setup timezone preferences in your user account.

Time Position Orientation Groundspeed Altitude Reporting Facility
EDT Latitude Longitude Course Direction KTS MPH feet Rate Location/Type
Thu 04:28:11 PM 39.6000 -104.8500 322° Northwest 192 221 7,200  Level Denver TRACON
Thu 04:29:11 PM 39.6500 -104.9000 322° Northwest 239 275 9,700 2,526 Climbing Denver TRACON
Thu 04:30:05 PM 39.7167 -104.9000 360° North 257 296 12,000 2,579 Climbing Denver TRACON
Thu 04:31:05 PM 39.7700 -104.8372 42° Northeast 290 334 14,600 2,262 Climbing Denver Center
Thu 04:32:07 PM 39.7925 -104.7172 76° East 324 373 16,600 1,839 Climbing Denver Center
Thu 04:33:09 PM 39.8222 -104.5975 72° East 353 406 18,400 1,839 Climbing Denver Center
Thu 04:34:11 PM 39.8558 -104.4619 72° East 366 421 20,400 1,887 Climbing Denver Center
Thu 04:35:13 PM 39.8861 -104.3308 73° East 380 437 22,300 1,887 Climbing Denver Center
Thu 04:36:15 PM 39.9222 -104.1844 72° East 386 444 24,300 1,887 Climbing Denver Center
Thu 04:37:17 PM 39.9528 -104.0547 73° East 385 443 26,200 1,887 Climbing Denver Center
Thu 04:38:19 PM 39.9881 -103.9139 72° East 383 441 28,200 1,887 Climbing Denver Center
Thu 04:39:21 PM 40.0181 -103.7831 73° East 377 434 30,100 1,694 Climbing Denver Center
Thu 04:40:23 PM 40.0433 -103.6442 77° East 358 412 31,700 1,463 Climbing Denver Center
Thu 04:41:24 PM 40.0631 -103.5150 79° East 379 436 33,100 1,289 Climbing Denver Center
Thu 04:42:38 PM 40.0853 -103.3881 77° East 375 432 34,600 1,489 Climbing Denver Center
Thu 04:43:41 PM 40.1119 -103.2175 78° East 374 430 36,500 1,488 Climbing Denver Center
Thu 04:44:43 PM 40.1353 -103.0731 78° East 367 422 37,700 1,065 Climbing Denver Center
Thu 04:45:45 PM 40.1558 -102.9461 78° East 372 428 38,700 978 Climbing Denver Center
Thu 04:46:58 PM 40.1778 -102.7983 79° East 371 427 39,900 971 Climbing Denver Center
Thu 04:48:01 PM 40.2011 -102.6536 78° East 366 421 40,900 528 Climbing Denver Center
Thu 04:49:03 PM 40.2236 -102.5039 79° East 375 432 41,000 32 Climbing Denver Center
Thu 04:51:06 PM 40.2694 -102.2025 79° East 415 478 41,000  Level Denver Center
Thu 04:52:08 PM 40.2906 -102.0544 79° East 430 495 41,000  Level Denver Center
Thu 04:53:10 PM 40.3178 -101.8769 79° East 445 512 41,000  Level Denver Center
Thu 04:54:12 PM 40.3403 -101.7239 79° East 448 516 41,000  Level Denver Center
Thu 04:55:14 PM 40.3661 -101.5419 79° East 455 524 41,000  Level Denver Center
Thu 04:56:16 PM 40.3953 -101.3878 76° East 457 526 41,000  Level Denver Center
Thu 04:57:18 PM 40.4539 -101.2183 66° East 458 527 41,000  Level Denver Center
Thu 04:58:20 PM 40.5025 -101.0725 66° East 459 528 41,000  Level Denver Center
Thu 04:59:22 PM 40.5589 -100.9000 67° East 462 532 41,000  Level Denver Center
Thu 05:01:17 PM 40.6533 -100.6203 66° East 465 535 41,000  Level Minneapolis Center
Thu 05:02:19 PM 40.7033 -100.4628 67° East 465 535 41,000  Level Minneapolis Center
Thu 05:03:21 PM 40.7544 -100.3072 67° East 465 535 41,000  Level Minneapolis Center
Thu 05:04:24 PM 40.8158 -100.1186 67° East 465 535 41,000  Level Minneapolis Center
Thu 05:05:26 PM 40.8669 -99.9617 67° East 465 535 41,000  Level Minneapolis Center
Thu 05:06:28 PM 40.9169 -99.8036 67° East 466 536 41,000  Level Minneapolis Center
Thu 05:06:47 PM 40.9261 -99.7714 69° East 466 536 41,000  Level Denver Center
Thu 05:07:50 PM 40.9864 -99.5817 67° East 465 535 41,000  Level Denver Center
Thu 05:08:52 PM 41.0364 -99.4233 67° East 466 536 41,000  Level Denver Center
Thu 05:09:53 PM 41.0861 -99.2650 67° East 465 535 41,000  Level Denver Center
Thu 05:10:55 PM 41.1356 -99.1047 68° East 466 536 41,000  Level Denver Center
Thu 05:11:57 PM 41.1903 -98.9275 68° East 465 535 41,000  Level Denver Center
Thu 05:12:40 PM 41.2233 -98.8214 67° East 465 535 41,000  Level Minneapolis Center
Thu 05:13:42 PM 41.2728 -98.6614 68° East 467 537 41,000  Level Minneapolis Center
Thu 05:14:44 PM 41.3206 -98.5011 68° East 467 537 41,000  Level Minneapolis Center
Thu 05:15:46 PM 41.3744 -98.3258 68° East 466 536 41,000  Level Minneapolis Center
Thu 05:16:48 PM 41.4228 -98.1653 68° East 467 537 41,000  Level Minneapolis Center
Thu 05:17:51 PM 41.4750 -97.9894 68° East 463 533 41,000  Level Minneapolis Center
Thu 05:18:53 PM 41.5222 -97.8294 68° East 463 533 41,000  Level Minneapolis Center
Thu 05:19:55 PM 41.5700 -97.6697 68° East 464 534 41,000  Level Minneapolis Center
Thu 05:20:57 PM 41.6164 -97.5103 69° East 462 532 41,000  Level Minneapolis Center
Thu 05:21:59 PM 41.6633 -97.3500 69° East 462 532 41,000  Level Minneapolis Center
Thu 05:23:01 PM 41.7086 -97.1889 69° East 462 532 41,000  Level Minneapolis Center
Thu 05:24:03 PM 41.7656 -96.9956 68° East 463 533 41,000  Level Minneapolis Center
Thu 05:25:05 PM 41.8114 -96.8339 69° East 463 533 41,000  Level Minneapolis Center
Thu 05:26:07 PM 41.8567 -96.6725 69° East 462 532 41,000  Level Minneapolis Center
Thu 05:27:09 PM 41.9028 -96.5103 69° East 462 532 41,000  Level Minneapolis Center
Thu 05:28:11 PM 41.9483 -96.3483 69° East 461 531 41,000  Level Minneapolis Center
Thu 05:29:13 PM 41.9933 -96.1853 70° East 463 533 41,000  Level Minneapolis Center
Thu 05:30:16 PM 42.0386 -96.0242 69° East 460 529 41,000  Level Minneapolis Center
Thu 05:31:18 PM 42.0917 -95.8286 70° East 462 532 41,000  Level Minneapolis Center
Thu 05:32:20 PM 42.1358 -95.6653 70° East 462 532 41,000  Level Minneapolis Center
Thu 05:33:22 PM 42.1808 -95.5031 69° East 462 532 41,000  Level Minneapolis Center
Thu 05:34:24 PM 42.2244 -95.3361 71° East 467 537 41,000  Level Minneapolis Center
Thu 05:35:26 PM 42.2678 -95.1725 70° East 463 533 41,000  Level Minneapolis Center
Thu 05:37:30 PM 42.3547 -94.8453 70° East 461 531 41,000  Level Minneapolis Center
Thu 05:38:32 PM 42.4061 -94.6478 71° East 462 532 41,000  Level Minneapolis Center
Thu 05:39:35 PM 42.4475 -94.4811 71° East 466 536 41,000  Level Minneapolis Center
Thu 05:40:37 PM 42.4925 -94.3061 71° East 466 536 41,000  Level Minneapolis Center
Thu 05:41:39 PM 42.5344 -94.1433 71° East 462 532 41,000  Level Minneapolis Center
Thu 05:42:41 PM 42.5778 -93.9781 70° East 467 537 41,000  Level Minneapolis Center
Thu 05:43:43 PM 42.6189 -93.8133 71° East 465 535 41,000  Level Minneapolis Center
Thu 05:44:45 PM 42.6603 -93.6486 71° East 464 534 41,000  Level Minneapolis Center
Thu 05:45:47 PM 42.7106 -93.4483 71° East 469 540 41,000  Level Minneapolis Center
Thu 05:46:49 PM 42.7517 -93.2828 71° East 468 539 41,000  Level Minneapolis Center
Thu 05:47:51 PM 42.7922 -93.1161 72° East 466 536 41,000  Level Minneapolis Center
Thu 05:48:53 PM 42.8322 -92.9511 72° East 464 534 41,000  Level Minneapolis Center
Thu 05:49:55 PM 42.8714 -92.7858 72° East 461 531 41,000  Level Minneapolis Center
Thu 05:50:57 PM 42.9119 -92.6206 71° East 461 531 41,000  Level Minneapolis Center
Thu 05:51:59 PM 42.9594 -92.4231 72° East 460 529 41,000  Level Minneapolis Center
Thu 05:53:02 PM 42.9978 -92.2581 72° East 457 526 41,000 -240 Level Minneapolis Center
Thu 05:54:04 PM 43.0358 -92.0947 72° East 454 522 40,500 -1,016 Descending Minneapolis Center
Thu 05:55:06 PM 43.0761 -91.9231 72° East 466 536 38,900 -1,548 Descending Minneapolis Center
Thu 05:56:08 PM 43.1147 -91.7517 73° East 472 543 37,300 -1,548 Descending Minneapolis Center
Thu 05:57:10 PM 43.1531 -91.5853 72° East 463 533 35,700 -1,694 Descending Minneapolis Center
Thu 05:58:12 PM 43.1992 -91.3869 72° East 457 526 33,800 -1,676 Descending Minneapolis Center
Thu 05:59:26 PM 43.2436 -91.1853 73° East 460 529 31,900 -1,500 Descending Minneapolis Center
Thu 06:00:28 PM 43.2803 -91.0225 73° East 454 522 30,400 -1,645 Descending Minneapolis Center
Thu 06:01:30 PM 43.3158 -90.8622 73° East 446 513 28,500 -1,824 Descending Minneapolis Center
Thu 06:02:33 PM 43.3514 -90.7039 73° East 440 506 26,600 -1,856 Descending Minneapolis Center
Thu 06:03:07 PM 43.3706 -90.6147 73° East 422 486 25,500 -2,226 Descending Chicago Center
Thu 06:03:35 PM 43.3908 -90.5247 73° East 417 480 24,300 -2,067 Descending Minneapolis Center
Thu 06:04:37 PM 43.4219 -90.3769 74° East 409 471 22,400 -1,935 Descending Minneapolis Center
Thu 06:05:39 PM 43.4503 -90.2408 74° East 385 443 20,300 -2,274 Descending Minneapolis Center
Thu 06:06:41 PM 43.4667 -90.0822 82° East 369 425 17,700 -2,032 Descending Minneapolis Center
Thu 06:07:43 PM 43.5033 -89.9561 68° East 340 391 16,100 -1,452 Descending Minneapolis Center
Thu 06:08:45 PM 43.5328 -89.8428 70° East 328 377 14,700 -1,438 Descending Minneapolis Center
Thu 06:09:19 PM 43.5481 -89.7789 72° East 325 374 13,800 -1,500 Descending Chicago Center
Thu 06:10:21 PM 43.5836 -89.6664 66° East 320 368 12,300 -1,344 Descending Chicago Center
Thu 06:11:24 PM 43.6306 -89.5564 59° Northeast 326 375 11,000 -867 Descending Chicago Center
Thu 06:11:51 PM 43.6525 -89.4931 64° Northeast 326 375 11,000 67 Level Minneapolis Center
Thu 06:12:53 PM 43.6897 -89.3867 64° Northeast 323 372 11,100 -48 Climbing Minneapolis Center
Thu 06:13:55 PM 43.7358 -89.2597 63° Northeast 327 376 10,900 -532 Descending Minneapolis Center
Thu 06:14:57 PM 43.7642 -89.1378 72° East 318 366 10,000 -871 Descending Minneapolis Center

Login

Don't have an account? Register now (free) for customized features, flight alerts, and more!